Fallon, NV (89406)

10:05 AM PST on December 18, 2014 (GMT -0800)
North Fallon-Rice Rd | Change Station
CLOSE
Current Station
Personal Weather Station
Location: Fallon, NV
Elevation: 3980 ft
Nearby Weather Stations

Elev 3980 ft 39.50 °N, 118.78 °W | Updated 8 seconds ago

Mostly Cloudy
Mostly Cloudy
44.2 °F
Feels Like 43 °F
N
3.1
Wind Variable Wind from West
Gusts 4.5 mph

Today
High -- | Low -- °F
--% Chance of Precip.
Yesterday
High -- | Low -- °F
Precip. -- in
7:10 AM 4:33 PM
Waning Crescent, 13% visible
Pressure 30.04 in
Visibility 10.0 miles
Clouds Few 5000 ft
Few 9000 ft
Scattered Clouds 22000 ft
Mostly Cloudy 28000 ft
Windchill 43 °F
Dew Point 33 °F
Humidity 64%
Rainfall 0.00 in
Snow Depth Not available.
UV 1 out of 12
Pollen .30 out of 12
Air Quality Not available.
Flu Activity Not available.
METAR KNFL 181756Z 18011KT 10SM FEW050 FEW090 SCT220 BKN280 07/M01 A3014 RMK AO2 SLP172 T00721011 10072 21022 51006

More Conditions Fewer Conditions

Pressure 30.04 in
Visibility 10.0 miles
Clouds Few 5000 ft
Few 9000 ft
Scattered Clouds 22000 ft
Mostly Cloudy 28000 ft
Windchill 43 °F
Dew Point 33 °F
Humidity 64%
Rainfall 0.00 in
Snow Depth Not available.
UV 1 out of 12
Pollen .30 out of 12
Air Quality Not available.
Flu Activity Not available.
METAR KNFL 181756Z 18011KT 10SM FEW050 FEW090 SCT220 BKN280 07/M01 A3014 RMK AO2 SLP172 T00721011 10072 21022 51006

More Conditions Fewer Conditions

10-Day Weather Forecast

Almanac

Astronomy

Dec. 18, 2014 Rise Set
Actual Time
Civil Twilight
Nautical Twilight
Astronomical Twilight
Moon
Length of Visible Light
Length of Day
Tomorrow will be .
, % of the Moon is Illuminated

Today's Extremes

State Highs State Lows

Community

WunderPhotos

Upload Photos

1,778,969 photos uploaded!

WunderBlogs® & News

Nearby

Air Quality

  Air Quality AQ Index Pollutant
Not available.

Snow Depth

Station Depth Elevation

Earthquake Activity

City Distance Mag. Time & Date
Minimum magnitude displayed is 2.5.

Coastal Water Temperatures

Place Temperature

Nearby Weather Stations